Time;durP1;ratioP1;P1;durP2;ratioP2;P2;SDS_P1;SDS_P2;PMS_P1;PMS_P2;Temp;Humidity;BMP_temperature;BMP_pressure;BME280_temperature;BME280_humidity;BME280_pressure;Samples;Min_cycle;Max_cycle;Signal;HPM_P1;HPM_P2
2023/09/01 00:00:48;;;;;;;4.03;1.88;;;;;;;11.38;95.52;101017.47;5029746;28;20128;-75
2023/09/01 00:03:32;;;;;;;;;;;;;;;11.39;95.43;101032.53;5038190;28;20413;-74
2023/09/01 00:06:02;;;;;;;3.72;2.15;;;;;;;11.37;95.40;101032.78;5032835;28;19924;-78
2023/09/01 00:08:29;;;;;;;5.80;2.15;;;;;;;11.37;95.56;101027.41;5038692;28;20036;-78
2023/09/01 00:10:54;;;;;;;4.32;3.13;;;;;;;11.36;95.34;101030.38;5027653;28;20036;-76
2023/09/01 00:13:20;;;;;;;5.68;2.20;;;;;;;11.31;95.35;101031.19;5031116;28;20373;-77
2023/09/01 00:15:46;;;;;;;4.45;2.10;;;;;;;11.32;95.47;101034.66;5015018;28;20524;-78
2023/09/01 00:18:11;;;;;;;3.17;2.28;;;;;;;11.29;95.60;101040.53;5026800;28;20060;-79
2023/09/01 00:20:37;;;;;;;4.82;2.00;;;;;;;11.31;95.61;101035.72;5040642;28;20572;-78
2023/09/01 00:23:03;;;;;;;;;;;;;;;11.30;95.50;101026.88;5004318;28;20040;-78
2023/09/01 00:25:30;;;;;;;3.88;1.80;;;;;;;11.27;96.05;101032.78;5051470;28;19917;-73
2023/09/01 00:27:55;;;;;;;;;;;;;;;11.27;96.20;101038.13;5048370;28;20071;-75
2023/09/01 00:30:21;;;;;;;3.78;1.50;;;;;;;11.26;96.35;101036.53;5036841;28;19979;-78
2023/09/01 00:32:47;;;;;;;2.15;1.45;;;;;;;11.27;96.52;101038.13;5019865;28;20131;-75
2023/09/01 00:35:15;;;;;;;5.57;2.08;;;;;;;11.31;96.23;101044.59;5018926;28;20029;-77
2023/09/01 00:37:41;;;;;;;3.65;1.50;;;;;;;11.32;96.39;101034.66;5032689;28;20074;-79
2023/09/01 00:40:07;;;;;;;3.08;2.03;;;;;;;11.36;96.59;101033.03;5025969;28;20033;-76
2023/09/01 00:42:33;;;;;;;3.17;1.83;;;;;;;11.39;96.90;101035.22;5050486;28;20040;-76
2023/09/01 00:44:59;;;;;;;6.28;1.90;;;;;;;11.42;97.61;101018.56;5057822;28;20036;-76
2023/09/01 00:47:24;;;;;;;3.88;1.50;;;;;;;11.46;97.66;101036.53;5035457;28;20032;-79
2023/09/01 00:49:50;;;;;;;;;;;;;;;11.52;98.06;101036.56;5032930;28;20111;-75
2023/09/01 00:52:16;;;;;;;5.80;2.10;;;;;;;11.53;98.47;101028.22;5033075;28;19962;-79
2023/09/01 00:54:42;;;;;;;;;;;;;;;11.58;98.57;101033.56;5052601;28;20025;-76
2023/09/01 00:57:08;;;;;;;4.82;1.98;;;;;;;11.60;98.46;101046.75;5033712;28;20297;-79
2023/09/01 00:59:36;;;;;;;3.05;1.30;;;;;;;11.63;98.26;101047.00;5031965;28;20520;-75
2023/09/01 01:02:04;;;;;;;3.50;1.52;;;;;;;11.66;97.88;101041.09;5032711;28;20489;-75
2023/09/01 01:04:31;;;;;;;4.25;1.80;;;;;;;11.68;98.41;101033.59;5011905;28;20036;-78
2023/09/01 01:07:22;;;;;;;3.53;1.33;;;;;;;11.73;98.12;101030.09;5053467;28;20032;-76
2023/09/01 01:09:59;;;;;;;3.70;1.77;;;;;;;11.76;98.10;101033.03;5008040;28;20570;-74
2023/09/01 01:12:41;;;;;;;3.60;1.90;;;;;;;11.79;98.01;101030.91;5033057;28;20033;-77
2023/09/01 01:15:10;;;;;;;5.47;2.40;;;;;;;11.77;98.00;101021.22;5043268;28;20033;-76
2023/09/01 01:17:39;;;;;;;4.22;1.95;;;;;;;11.77;97.75;101020.41;5032871;28;20122;-78
2023/09/01 01:20:39;;;;;;;3.55;1.85;;;;;;;11.79;97.67;101022.84;5028268;28;20039;-76
2023/09/01 01:23:07;;;;;;;5.13;2.17;;;;;;;11.79;97.66;101023.66;5046448;28;20040;-75
2023/09/01 01:25:33;;;;;;;4.18;1.48;;;;;;;11.81;97.52;101015.38;5040646;28;20047;-76
2023/09/01 01:28:06;;;;;;;4.25;1.80;;;;;;;11.81;97.55;101018.03;5021620;28;20029;-78
2023/09/01 01:30:32;;;;;;;4.30;1.70;;;;;;;11.79;97.35;101018.28;5040132;28;20570;-76
2023/09/01 01:32:58;;;;;;;3.70;1.60;;;;;;;11.81;97.25;101020.72;5035694;28;20119;-75
2023/09/01 01:35:51;;;;;;;6.57;2.22;;;;;;;11.80;97.09;101024.47;5035113;28;20028;-76
2023/09/01 01:38:23;;;;;;;4.13;2.50;;;;;;;11.76;96.96;101033.03;5048926;28;20501;-74
2023/09/01 01:40:52;;;;;;;2.92;1.33;;;;;;;11.74;97.01;101042.44;5027341;28;20138;-76
2023/09/01 01:43:22;;;;;;;5.20;1.90;;;;;;;11.70;96.58;101026.06;5015224;28;20501;-74
2023/09/01 01:45:49;;;;;;;6.57;1.58;;;;;;;11.67;96.13;101033.84;5037799;28;20043;-74
2023/09/01 01:48:15;;;;;;;6.07;2.22;;;;;;;11.63;95.89;101022.84;5030266;28;20040;-77
2023/09/01 01:50:43;;;;;;;4.93;1.50;;;;;;;11.59;95.65;101035.22;5013480;28;20036;-74
2023/09/01 01:53:09;;;;;;;5.18;1.83;;;;;;;11.56;95.73;101034.94;5026725;28;20044;-76
2023/09/01 01:55:34;;;;;;;5.03;1.50;;;;;;;11.52;95.73;101037.34;5015532;28;20106;-78
2023/09/01 01:58:01;;;;;;;3.90;1.35;;;;;;;11.48;95.46;101041.63;5027419;28;20037;-74
2023/09/01 02:00:30;;;;;;;2.72;1.60;;;;;;;11.44;95.16;101043.22;5050750;28;20033;-76
2023/09/01 02:02:56;;;;;;;6.57;1.70;;;;;;;11.42;95.34;101040.03;5043508;28;20036;-77
2023/09/01 02:05:23;;;;;;;3.45;1.60;;;;;;;11.39;95.53;101045.94;5024407;28;20060;-80
2023/09/01 02:07:48;;;;;;;4.00;1.75;;;;;;;11.37;95.25;101042.69;5004114;28;20151;-79
2023/09/01 02:10:14;;;;;;;6.20;2.20;;;;;;;11.34;95.24;101053.97;5010267;28;20119;-78
2023/09/01 02:12:39;;;;;;;4.65;1.52;;;;;;;11.27;95.28;101045.38;5009561;28;20033;-77
2023/09/01 02:15:09;;;;;;;5.10;2.22;;;;;;;11.25;95.59;101050.22;5020265;28;20098;-77
2023/09/01 02:17:36;;;;;;;6.60;1.70;;;;;;;11.23;95.47;101049.66;5046616;28;20032;-78
2023/09/01 02:20:16;;;;;;;4.22;1.77;;;;;;;11.21;95.67;101058.78;5007576;28;20119;-77
2023/09/01 02:22:47;;;;;;;7.53;1.83;;;;;;;11.18;95.09;101040.56;5020765;28;20124;-77
2023/09/01 02:25:13;;;;;;;5.00;2.20;;;;;;;11.15;95.91;101051.78;5010156;28;20036;-77
2023/09/01 02:27:41;;;;;;;2.92;1.50;;;;;;;11.15;95.95;101057.16;5027624;28;20028;-79
2023/09/01 02:30:11;;;;;;;5.97;1.60;;;;;;;11.13;95.93;101056.63;5037919;28;20039;-77
2023/09/01 02:32:38;;;;;;;5.28;1.98;;;;;;;11.12;96.03;101063.06;5002885;28;20535;-78
2023/09/01 02:35:06;;;;;;;4.50;1.67;;;;;;;11.11;96.08;101061.44;5038362;28;20032;-78
2023/09/01 02:37:32;;;;;;;3.10;1.48;;;;;;;11.10;95.96;101059.81;5026286;28;20108;-78
2023/09/01 02:39:58;;;;;;;5.30;1.60;;;;;;;11.09;96.09;101063.56;5004942;28;20577;-78
2023/09/01 02:42:25;;;;;;;3.40;1.60;;;;;;;11.10;96.20;101065.16;5032828;28;20055;-78
2023/09/01 02:44:52;;;;;;;5.47;1.90;;;;;;;11.10;96.53;101059.81;5028260;28;20040;-77
2023/09/01 02:47:18;;;;;;;4.50;2.17;;;;;;;11.12;96.68;101065.72;5027915;28;20090;-77
2023/09/01 02:49:43;;;;;;;4.43;1.75;;;;;;;11.10;96.82;101062.50;5012855;28;20040;-77
2023/09/01 02:52:09;;;;;;;;;;;;;;;11.07;96.76;101063.03;5011109;28;20029;-79
2023/09/01 02:54:35;;;;;;;6.05;1.92;;;;;;;11.05;96.55;101061.69;5007926;28;19989;-76
2023/09/01 02:57:01;;;;;;;;;;;;;;;11.03;96.56;101064.63;5026589;28;20041;-75
2023/09/01 02:59:26;;;;;;;4.68;2.30;;;;;;;11.02;96.63;101057.66;5041054;28;19916;-77
2023/09/01 03:01:52;;;;;;;3.85;2.00;;;;;;;11.01;96.45;101071.31;5027703;28;20488;-77
2023/09/01 03:04:18;;;;;;;3.83;2.70;;;;;;;10.99;96.53;101063.56;5010850;28;20040;-77
2023/09/01 03:06:44;;;;;;;4.80;1.90;;;;;;;10.97;96.47;101060.31;5006571;28;20087;-76
2023/09/01 03:09:10;;;;;;;;;;;;;;;10.97;96.46;101062.19;5020093;28;20043;-77
2023/09/01 03:11:36;;;;;;;4.78;2.10;;;;;;;10.92;96.48;101060.31;5023167;28;20382;-77
2023/09/01 03:14:04;;;;;;;6.05;1.95;;;;;;;10.93;96.22;101061.94;5011070;28;20056;-74
2023/09/01 03:16:30;;;;;;;7.32;2.60;;;;;;;10.91;96.19;101061.41;5024699;28;20127;-76
2023/09/01 03:18:59;;;;;;;5.05;2.38;;;;;;;10.88;96.25;101062.72;5024834;28;20029;-77
2023/09/01 03:21:32;;;;;;;5.25;3.20;;;;;;;10.87;96.69;101071.81;5013711;28;20040;-79
2023/09/01 03:23:58;;;;;;;5.15;2.00;;;;;;;10.86;96.70;101061.38;5028306;28;20565;-78
2023/09/01 03:26:24;;;;;;;6.43;2.75;;;;;;;10.84;96.84;101067.00;5011937;28;20120;-77
2023/09/01 03:28:57;;;;;;;4.15;2.00;;;;;;;10.84;97.11;101060.84;5037137;28;20033;-77
2023/09/01 03:31:23;;;;;;;5.85;1.92;;;;;;;10.85;96.70;101060.56;5006763;28;20040;-76
2023/09/01 03:33:50;;;;;;;5.35;1.98;;;;;;;10.84;97.20;101066.19;5034538;28;20476;-78
2023/09/01 03:36:16;;;;;;;4.95;2.72;;;;;;;10.83;96.74;101065.38;5011817;28;20037;-76
2023/09/01 03:38:42;;;;;;;;;;;;;;;10.80;96.23;101063.22;5014606;28;20037;-77
2023/09/01 03:41:07;;;;;;;3.15;1.80;;;;;;;10.77;96.25;101062.94;5043587;28;19919;-77
2023/09/01 03:43:34;;;;;;;4.35;1.58;;;;;;;10.74;96.11;101069.63;5030307;28;20123;-77
2023/09/01 03:46:00;;;;;;;4.80;2.20;;;;;;;10.74;96.33;101066.94;5046982;28;20073;-79
2023/09/01 03:48:26;;;;;;;;;;;;;;;10.71;96.24;101072.84;5025917;28;20505;-77
2023/09/01 03:51:10;;;;;;;4.15;1.85;;;;;;;10.70;96.43;101075.75;5009987;28;19920;-76
2023/09/01 03:53:38;;;;;;;4.63;2.00;;;;;;;10.67;96.63;101071.75;5025832;28;20032;-78
2023/09/01 03:56:09;;;;;;;4.30;2.25;;;;;;;10.66;96.54;101075.50;5011947;28;20028;-77
2023/09/01 03:58:36;;;;;;;4.20;1.65;;;;;;;10.62;96.26;101075.19;5009035;28;20059;-78
2023/09/01 04:01:01;;;;;;;2.95;1.90;;;;;;;10.61;96.28;101073.59;5040617;28;20037;-76
2023/09/01 04:03:27;;;;;;;5.35;2.60;;;;;;;10.58;96.44;101071.47;5030292;28;20035;-78
2023/09/01 04:05:57;;;;;;;3.70;2.00;;;;;;;10.57;96.46;101061.81;5044789;28;20481;-75
2023/09/01 04:08:23;;;;;;;5.60;2.72;;;;;;;10.55;96.29;101069.28;5013591;28;20671;-76
2023/09/01 04:10:49;;;;;;;5.20;2.33;;;;;;;10.54;96.36;101066.88;5039645;28;20037;-75
2023/09/01 04:13:14;;;;;;;4.35;2.60;;;;;;;10.52;96.48;101069.00;5024250;28;20036;-78
2023/09/01 04:15:40;;;;;;;3.50;2.20;;;;;;;10.51;96.37;101070.09;5023179;28;20036;-77
2023/09/01 04:18:07;;;;;;;4.78;2.17;;;;;;;10.51;96.29;101073.56;5019739;28;20188;-77
2023/09/01 04:20:33;;;;;;;3.05;1.95;;;;;;;10.48;96.65;101074.06;5024173;28;20111;-77
2023/09/01 04:22:59;;;;;;;4.72;1.85;;;;;;;10.48;96.75;101078.63;5027761;28;20131;-77
2023/09/01 04:25:25;;;;;;;4.47;2.60;;;;;;;10.47;96.91;101083.19;5034316;28;20051;-78
2023/09/01 04:27:51;;;;;;;5.30;2.25;;;;;;;10.47;96.86;101085.84;5022605;28;20036;-79
2023/09/01 04:30:17;;;;;;;4.63;2.75;;;;;;;10.48;96.80;101095.50;5026808;28;20041;-79
2023/09/01 04:32:44;;;;;;;6.15;2.33;;;;;;;10.43;96.78;101076.75;5026713;28;20029;-78
2023/09/01 04:35:11;;;;;;;5.82;2.47;;;;;;;10.47;96.98;101093.88;5011817;28;20097;-75
2023/09/01 04:37:36;;;;;;;5.68;2.78;;;;;;;10.47;96.86;101091.22;5016427;28;20075;-75
2023/09/01 04:40:06;;;;;;;4.25;2.00;;;;;;;10.48;97.10;101090.13;5043876;28;20123;-76
2023/09/01 04:42:33;;;;;;;3.88;2.10;;;;;;;10.50;97.16;101097.91;5021097;28;20122;-77
2023/09/01 04:44:59;;;;;;;2.92;1.83;;;;;;;10.47;97.01;101104.59;5024019;28;20066;-78
2023/09/01 04:47:27;;;;;;;8.30;2.42;;;;;;;10.48;96.98;101094.69;5018274;28;20033;-77
2023/09/01 04:49:52;;;;;;;4.95;2.15;;;;;;;10.49;97.18;101089.06;5030698;28;20036;-76
2023/09/01 04:52:18;;;;;;;;;;;;;;;10.50;97.08;101101.41;5023419;28;20040;-78
2023/09/01 04:54:44;;;;;;;4.95;2.15;;;;;;;10.48;97.46;101100.03;5008729;28;20445;-79
2023/09/01 04:57:09;;;;;;;5.70;2.30;;;;;;;10.50;97.61;101104.09;5004501;28;20041;-78
2023/09/01 04:59:35;;;;;;;3.17;1.90;;;;;;;10.51;97.58;101111.06;5022974;28;20040;-81
2023/09/01 05:02:01;;;;;;;3.25;1.83;;;;;;;10.52;97.41;101109.97;4998903;28;20052;-78
2023/09/01 05:04:27;;;;;;;;;;;;;;;10.55;97.39;101109.44;5022762;28;20520;-78
2023/09/01 05:06:53;;;;;;;4.93;2.65;;;;;;;10.56;97.54;101113.75;5029062;28;19952;-78
2023/09/01 05:09:19;;;;;;;3.78;2.58;;;;;;;10.56;97.43;101111.06;5002784;28;20043;-78
2023/09/01 05:11:44;;;;;;;4.07;2.03;;;;;;;10.60;97.62;101106.00;5003554;28;20036;-78
2023/09/01 05:14:10;;;;;;;5.22;2.72;;;;;;;10.61;97.72;101119.13;5013578;28;20520;-77
2023/09/01 05:16:37;;;;;;;4.13;2.00;;;;;;;10.64;97.58;101115.13;5039614;28;20489;-76
2023/09/01 05:19:02;;;;;;;4.05;2.33;;;;;;;10.69;97.78;101123.19;5020532;28;20039;-76
2023/09/01 05:21:28;;;;;;;5.03;2.78;;;;;;;10.72;97.92;101120.00;5056888;28;20031;-77
2023/09/01 05:23:54;;;;;;;5.07;2.50;;;;;;;10.77;98.04;101121.88;5008655;28;20036;-78
2023/09/01 05:26:19;;;;;;;7.18;3.05;;;;;;;10.82;98.30;101129.94;5011123;28;20056;-76
2023/09/01 05:28:46;;;;;;;7.10;2.88;;;;;;;10.84;98.68;101119.78;5026214;28;20058;-74
2023/09/01 05:31:11;;;;;;;7.35;2.90;;;;;;;10.90;98.98;101129.44;5010947;28;20071;-75
2023/09/01 05:33:45;;;;;;;4.55;2.42;;;;;;;10.96;99.12;101128.38;5044970;28;20051;-78
2023/09/01 05:36:11;;;;;;;6.50;2.70;;;;;;;11.04;99.04;101130.59;5008079;28;20502;-77
2023/09/01 05:38:36;;;;;;;5.93;2.63;;;;;;;11.11;99.25;101131.13;5007497;28;20040;-79
2023/09/01 05:41:05;;;;;;;5.97;2.75;;;;;;;11.21;99.55;101135.72;5012641;28;20037;-77
2023/09/01 05:43:31;;;;;;;7.13;2.90;;;;;;;11.28;99.52;101136.25;5029082;28;20051;-78
2023/09/01 05:45:59;;;;;;;;;;;;;;;11.38;99.69;101140.84;5025565;28;20047;-77
2023/09/01 05:48:26;;;;;;;7.38;2.60;;;;;;;11.50;99.57;101133.34;5007946;28;19913;-78
2023/09/01 05:50:52;;;;;;;4.95;2.78;;;;;;;11.59;99.37;101137.13;5012273;28;20048;-77
2023/09/01 05:53:18;;;;;;;5.85;2.50;;;;;;;11.72;98.70;101138.50;5011772;28;20033;-78
2023/09/01 05:55:43;;;;;;;4.20;2.13;;;;;;;11.84;98.53;101139.06;5021629;28;20579;-75
2023/09/01 05:58:09;;;;;;;6.43;2.60;;;;;;;11.93;98.12;101142.84;5017766;28;20040;-78
2023/09/01 06:00:36;;;;;;;5.47;3.38;;;;;;;12.03;98.10;101147.38;5056617;28;20148;-77
2023/09/01 06:03:03;;;;;;;5.85;2.45;;;;;;;12.12;97.59;101148.44;5003867;28;20072;-75
2023/09/01 06:05:30;;;;;;;4.22;2.72;;;;;;;12.21;97.08;101154.09;5044948;28;20028;-78
2023/09/01 06:07:55;;;;;;;7.53;2.30;;;;;;;12.27;96.58;101158.38;5039968;28;20040;-79
2023/09/01 06:10:21;;;;;;;7.18;2.60;;;;;;;12.35;96.52;101159.72;5039938;28;20075;-78
2023/09/01 06:12:47;;;;;;;3.97;2.10;;;;;;;12.42;96.81;101155.66;5026093;28;20512;-76
2023/09/01 06:15:13;;;;;;;4.72;2.00;;;;;;;12.48;96.88;101151.91;5012092;28;20463;-77
2023/09/01 06:17:38;;;;;;;6.43;2.47;;;;;;;12.54;96.74;101158.06;5006458;28;20063;-76
2023/09/01 06:20:06;;;;;;;5.78;2.10;;;;;;;12.55;97.05;101154.31;5026363;28;20465;-76
2023/09/01 06:22:34;;;;;;;4.15;2.35;;;;;;;12.57;97.35;101161.00;5011304;28;20048;-75
2023/09/01 06:25:02;;;;;;;4.57;2.10;;;;;;;12.65;97.32;101170.38;5022467;28;20037;-78
2023/09/01 06:27:28;;;;;;;5.88;2.50;;;;;;;12.68;97.29;101164.47;5043085;28;20040;-77
2023/09/01 06:29:56;;;;;;;4.45;1.92;;;;;;;12.76;96.20;101171.16;5026266;28;20432;-76
2023/09/01 06:32:23;;;;;;;8.75;2.60;;;;;;;12.85;97.07;101164.94;5022848;28;20055;-78
2023/09/01 06:34:49;;;;;;;4.28;1.95;;;;;;;12.94;97.38;101177.81;5028668;28;20040;-79
2023/09/01 06:37:15;;;;;;;;;;;;;;;13.02;97.47;101169.19;5058573;28;20028;-77
2023/09/01 06:39:41;;;;;;;6.20;1.70;;;;;;;13.08;96.79;101173.47;5023974;28;19948;-77
2023/09/01 06:42:07;;;;;;;5.05;2.00;;;;;;;13.18;96.87;101173.41;5023489;28;20060;-80
2023/09/01 06:44:33;;;;;;;;;;;;;;;13.30;96.82;101186.59;5042284;28;20040;-77
2023/09/01 06:46:59;;;;;;;3.45;1.73;;;;;;;13.36;96.55;101180.09;5040179;28;20258;-79
2023/09/01 06:49:24;;;;;;;4.38;2.03;;;;;;;13.50;95.83;101182.97;5041304;28;20036;-77
2023/09/01 06:51:50;;;;;;;4.68;1.77;;;;;;;13.59;95.45;101175.91;5046217;28;20090;-79
2023/09/01 06:54:15;;;;;;;6.20;1.67;;;;;;;13.66;95.23;101179.91;5035288;28;20486;-78
2023/09/01 06:56:41;;;;;;;;;;;;;;;13.77;93.89;101175.25;5020027;28;20029;-80
2023/09/01 06:59:07;;;;;;;5.97;1.70;;;;;;;13.83;93.64;101178.72;5051886;28;19923;-76
2023/09/01 07:01:32;;;;;;;3.88;1.75;;;;;;;13.92;92.24;101187.81;5033429;28;20036;-74
2023/09/01 07:03:58;;;;;;;2.97;1.40;;;;;;;14.04;89.83;101185.56;5053289;28;20040;-74
2023/09/01 07:06:23;;;;;;;4.30;1.65;;;;;;;14.20;90.17;101183.53;5025776;28;20120;-74
2023/09/01 07:08:49;;;;;;;3.35;1.52;;;;;;;14.28;91.05;101185.63;5036866;28;20610;-75
2023/09/01 07:11:19;;;;;;;2.53;1.20;;;;;;;14.34;91.77;101195.25;5016319;28;20519;-74
2023/09/01 07:13:46;;;;;;;5.00;1.13;;;;;;;14.33;88.29;101192.84;5042459;28;20405;-74
2023/09/01 07:16:13;;;;;;;4.03;1.38;;;;;;;14.34;87.73;101192.56;5017077;28;20036;-75
2023/09/01 07:18:38;;;;;;;5.28;1.23;;;;;;;14.38;88.52;101196.31;5039358;28;20029;-75
2023/09/01 07:21:04;;;;;;;;;;;;;;;14.41;90.27;101205.72;5013581;28;20041;-74
2023/09/01 07:23:30;;;;;;;2.65;1.23;;;;;;;14.40;88.57;101209.50;5028302;28;20369;-76
2023/09/01 07:25:55;;;;;;;;;;;;;;;14.44;89.36;101203.25;5030894;28;20090;-74
2023/09/01 07:28:22;;;;;;;3.08;1.30;;;;;;;14.46;91.04;101203.81;5037295;28;19920;-78
2023/09/01 07:30:48;;;;;;;4.95;1.40;;;;;;;14.45;90.79;101207.56;5051779;28;20124;-77
2023/09/01 07:33:15;;;;;;;4.68;1.48;;;;;;;14.50;90.08;101203.25;5053257;28;20070;-74
2023/09/01 07:35:45;;;;;;;4.85;1.90;;;;;;;14.54;90.60;101196.19;5051452;28;20028;-78
2023/09/01 07:38:11;;;;;;;2.70;1.42;;;;;;;14.61;91.78;101202.03;5018603;28;20047;-77
2023/09/01 07:40:37;;;;;;;2.85;1.30;;;;;;;14.68;90.65;101205.22;5030590;28;20694;-78
2023/09/01 07:43:03;;;;;;;;;;;;;;;14.78;89.52;101215.09;5016759;28;20028;-77
2023/09/01 07:45:30;;;;;;;2.30;1.30;;;;;;;14.90;88.47;101207.38;5015618;28;20004;-75
2023/09/01 07:47:55;;;;;;;3.53;1.38;;;;;;;15.02;89.35;101203.19;5018166;28;20095;-77
2023/09/01 07:50:23;;;;;;;;;;;;;;;15.12;86.61;101218.47;5034691;28;20040;-75
2023/09/01 07:52:52;;;;;;;3.17;1.20;;;;;;;15.32;85.07;101219.31;5033472;28;19912;-75
2023/09/01 07:55:18;;;;;;;7.30;1.08;;;;;;;15.47;83.53;101214.50;5036416;28;20123;-77
2023/09/01 07:57:43;;;;;;;;;;;;;;;15.56;84.84;101203.88;5022081;28;20131;-74
2023/09/01 08:00:09;;;;;;;3.92;1.10;;;;;;;15.67;83.27;101218.06;5019044;28;19912;-75
2023/09/01 08:02:41;;;;;;;2.88;1.13;;;;;;;15.75;83.34;101222.81;5029394;28;20037;-74
2023/09/01 08:05:07;;;;;;;;;;;;;;;15.83;81.29;101214.03;5026346;28;20036;-75
2023/09/01 08:07:33;;;;;;;4.22;1.45;;;;;;;15.94;81.98;101220.91;5046724;28;19912;-77
2023/09/01 08:09:58;;;;;;;5.47;0.93;;;;;;;16.03;82.50;101224.53;5033144;28;20496;-75
2023/09/01 08:12:25;;;;;;;;;;;;;;;16.15;83.20;101226.78;5030532;28;20040;-77
2023/09/01 08:14:51;;;;;;;3.08;0.90;;;;;;;16.22;81.18;101229.09;5037241;28;19981;-78
2023/09/01 08:17:16;;;;;;;;;;;;;;;16.22;82.40;101231.81;5031597;28;20048;-75
2023/09/01 08:19:46;;;;;;;3.75;1.30;;;;;;;16.29;81.70;101234.94;5031691;28;19917;-74
2023/09/01 08:22:13;;;;;;;2.47;0.93;;;;;;;16.39;83.83;101226.63;5012327;28;20036;-75
2023/09/01 08:24:38;;;;;;;4.72;1.30;;;;;;;16.44;84.94;101229.25;5030539;28;20033;-75
2023/09/01 08:27:04;;;;;;;;;;;;;;;16.54;80.08;101229.09;5071435;28;20508;-74
2023/09/01 08:29:31;;;;;;;3.35;1.45;;;;;;;16.59;78.14;101231.69;5024928;28;19938;-76
2023/09/01 08:31:56;;;;;;;4.78;1.38;;;;;;;16.71;81.65;101233.16;5029559;28;20036;-74
2023/09/01 08:34:22;;;;;;;;;;;;;;;16.81;78.72;101227.56;5028596;28;20037;-77
2023/09/01 08:36:48;;;;;;;2.22;1.10;;;;;;;16.89;76.96;101234.97;5030633;28;20647;-76
2023/09/01 08:39:15;;;;;;;4.40;1.23;;;;;;;16.91;78.92;101224.66;5028628;28;20037;-74
2023/09/01 08:41:41;;;;;;;5.85;1.40;;;;;;;16.97;76.98;101230.75;5048511;28;20049;-76
2023/09/01 08:44:09;;;;;;;4.15;1.00;;;;;;;17.07;80.10;101231.38;5018490;28;20056;-74
2023/09/01 08:46:35;;;;;;;3.38;1.45;;;;;;;17.16;79.91;101239.59;5027102;28;20041;-77
2023/09/01 08:49:02;;;;;;;3.42;1.05;;;;;;;17.19;77.62;101236.25;5016338;28;20907;-74
2023/09/01 08:51:29;;;;;;;3.25;1.10;;;;;;;17.26;76.59;101235.88;5063577;28;20036;-75
2023/09/01 08:53:55;;;;;;;2.13;1.10;;;;;;;17.31;74.00;101230.34;5026070;28;20036;-78
2023/09/01 08:56:21;;;;;;;4.07;1.20;;;;;;;17.37;75.73;101229.13;5019448;28;20055;-73
2023/09/01 08:58:47;;;;;;;2.83;1.15;;;;;;;17.41;72.70;101235.56;5033416;28;20032;-73
2023/09/01 09:01:14;;;;;;;3.17;0.95;;;;;;;17.49;73.05;101231.34;5030927;28;20086;-75
2023/09/01 09:03:40;;;;;;;3.15;1.30;;;;;;;17.57;73.40;101228.69;5049462;28;20040;-75
2023/09/01 09:06:05;;;;;;;4.10;0.95;;;;;;;17.51;73.06;101224.50;5035614;28;20037;-77
2023/09/01 09:08:34;;;;;;;2.47;1.27;;;;;;;17.61;72.12;101234.28;5048301;28;20036;-74
2023/09/01 09:10:59;;;;;;;3.05;1.10;;;;;;;17.68;74.98;101230.09;5004890;28;20041;-74
2023/09/01 09:13:29;;;;;;;3.75;0.80;;;;;;;17.76;76.33;101234.00;5017102;28;20110;-75
2023/09/01 09:16:12;;;;;;;5.10;0.90;;;;;;;17.77;73.14;101234.81;5043772;28;20083;-75
2023/09/01 09:18:46;;;;;;;4.03;1.23;;;;;;;17.86;72.81;101230.25;5029917;28;20563;-77
2023/09/01 09:21:23;;;;;;;2.05;0.75;;;;;;;17.97;73.35;101237.84;5010443;28;20124;-76
2023/09/01 09:23:49;;;;;;;3.15;1.40;;;;;;;18.06;72.04;101239.81;5027716;28;20036;-76
2023/09/01 09:26:15;;;;;;;2.92;0.70;;;;;;;18.16;70.97;101234.16;5015160;28;20045;-77
2023/09/01 09:28:41;;;;;;;4.60;1.35;;;;;;;18.25;70.74;101229.59;5011306;28;20051;-74
2023/09/01 09:31:07;;;;;;;5.05;0.93;;;;;;;18.36;71.59;101239.06;5029353;28;20390;-74
2023/09/01 09:33:34;;;;;;;2.88;0.95;;;;;;;18.40;70.88;101229.19;5050319;28;20029;-74
2023/09/01 09:36:00;;;;;;;4.15;1.05;;;;;;;18.40;71.30;101233.81;5031644;28;20092;-77
2023/09/01 09:38:44;;;;;;;3.70;1.30;;;;;;;18.59;70.76;101237.13;5046891;28;20087;-76
2023/09/01 09:41:10;;;;;;;2.55;1.20;;;;;;;18.63;69.24;101238.13;5025839;28;20040;-74
2023/09/01 09:43:47;;;;;;;3.35;1.20;;;;;;;18.74;68.85;101236.75;5013320;28;20044;-76
2023/09/01 09:46:14;;;;;;;3.53;1.20;;;;;;;18.79;68.80;101228.47;5047283;28;20500;-74
2023/09/01 09:48:41;;;;;;;7.18;1.75;;;;;;;18.81;71.79;101237.09;5030811;28;20063;-75
2023/09/01 09:51:07;;;;;;;3.65;1.27;;;;;;;18.90;70.57;101236.31;5025238;28;20028;-80
2023/09/01 09:53:38;;;;;;;4.53;1.00;;;;;;;18.95;71.35;101233.47;5017062;28;20036;-75
2023/09/01 09:56:30;;;;;;;4.38;1.00;;;;;;;18.90;70.69;101237.16;5016855;28;20024;-74
2023/09/01 09:59:01;;;;;;;3.50;1.10;;;;;;;18.99;69.62;101239.88;5028126;28;20194;-74
2023/09/01 10:01:30;;;;;;;4.35;1.20;;;;;;;18.92;69.59;101250.41;5044699;28;20024;-74
2023/09/01 10:03:56;;;;;;;3.33;1.55;;;;;;;18.92;71.95;101244.97;5043542;28;20044;-76
2023/09/01 10:06:23;;;;;;;4.35;0.90;;;;;;;18.94;68.07;101242.72;5046305;28;20045;-74
2023/09/01 10:08:51;;;;;;;3.15;1.33;;;;;;;18.84;66.64;101240.31;5051923;28;20044;-79
2023/09/01 10:11:17;;;;;;;3.20;0.93;;;;;;;18.89;67.63;101242.88;5029267;28;20060;-74
2023/09/01 10:13:47;;;;;;;2.83;1.02;;;;;;;18.91;67.58;101246.09;5026566;28;20451;-74
2023/09/01 10:16:14;;;;;;;2.97;0.90;;;;;;;18.94;67.02;101250.88;5028673;28;20052;-79
2023/09/01 10:18:47;;;;;;;2.70;1.00;;;;;;;19.08;71.00;101259.69;5028272;28;20047;-73
2023/09/01 10:21:13;;;;;;;3.03;0.85;;;;;;;19.15;71.54;101260.03;5043760;28;20393;-78
2023/09/01 10:23:40;;;;;;;3.35;1.15;;;;;;;19.19;69.41;101258.31;5034725;28;20060;-75
2023/09/01 10:26:17;;;;;;;3.20;1.13;;;;;;;19.20;68.73;101262.63;5044306;28;20033;-77
2023/09/01 10:29:13;;;;;;;3.58;1.45;;;;;;;19.28;69.90;101267.28;5067190;28;20109;-75
2023/09/01 10:31:39;;;;;;;2.90;1.08;;;;;;;19.30;67.40;101267.75;5026191;28;20044;-75
2023/09/01 10:34:10;;;;;;;3.25;0.95;;;;;;;19.44;66.93;101277.69;5015339;28;20409;-80
2023/09/01 10:36:38;;;;;;;4.35;1.60;;;;;;;19.39;65.47;101265.06;5035354;28;20378;-81
2023/09/01 10:39:16;;;;;;;3.58;1.50;;;;;;;19.41;65.31;101267.47;5016559;28;20044;-74
2023/09/01 10:42:02;;;;;;;;;;;;;;;19.45;62.82;101257.59;5046592;28;20857;-79
2023/09/01 10:44:42;;;;;;;2.55;1.05;;;;;;;19.51;69.04;101257.13;5039755;28;20385;-73
2023/09/01 10:47:34;;;;;;;3.58;1.40;;;;;;;19.35;67.91;101269.53;5061929;28;20074;-75
2023/09/01 10:50:01;;;;;;;3.83;1.10;;;;;;;19.18;67.55;101270.28;5047367;28;20036;-76
2023/09/01 10:52:28;;;;;;;5.07;1.02;;;;;;;19.05;67.61;101268.50;5034902;28;20116;-75
2023/09/01 10:55:04;;;;;;;6.85;1.15;;;;;;;18.90;68.40;101268.88;5006813;28;20670;-74
2023/09/01 10:57:48;;;;;;;1.95;1.10;;;;;;;18.88;73.36;101271.13;5030008;28;20039;-75
2023/09/01 11:00:33;;;;;;;3.17;1.15;;;;;;;18.76;71.38;101269.81;5034499;28;20114;-74
2023/09/01 11:03:29;;;;;;;3.13;1.30;;;;;;;18.75;71.51;101268.19;5050353;28;20033;-72
2023/09/01 11:05:56;;;;;;;;;;;;;;;18.73;74.72;101266.91;5036452;28;20044;-73
2023/09/01 11:08:22;;;;;;;4.95;1.30;;;;;;;18.64;69.06;101274.16;5047988;28;19945;-74
2023/09/01 11:10:47;;;;;;;3.60;1.10;;;;;;;18.56;70.32;101281.16;5047490;28;20458;-75
2023/09/01 11:13:18;;;;;;;3.58;1.60;;;;;;;18.61;75.13;101282.91;5043217;28;20036;-74
2023/09/01 11:15:49;;;;;;;3.33;1.70;;;;;;;18.58;75.90;101289.78;5041848;28;20055;-75
2023/09/01 11:18:16;;;;;;;4.32;1.60;;;;;;;18.60;75.86;101287.53;5029985;28;20060;-75
2023/09/01 11:20:42;;;;;;;3.92;1.52;;;;;;;18.63;75.54;101292.38;5022032;28;20032;-76
2023/09/01 11:23:09;;;;;;;3.45;1.75;;;;;;;18.68;75.01;101284.09;5026842;28;20024;-76
2023/09/01 11:25:35;;;;;;;2.30;1.20;;;;;;;18.78;72.61;101288.47;5022889;28;20129;-76
2023/09/01 11:28:02;;;;;;;3.80;1.25;;;;;;;18.81;66.84;101285.94;5040850;28;20059;-75
2023/09/01 11:30:28;;;;;;;2.95;1.38;;;;;;;18.91;67.30;101297.66;5066866;28;20060;-77
2023/09/01 11:32:54;;;;;;;3.15;1.48;;;;;;;19.05;71.55;101304.56;5039676;28;20339;-74
2023/09/01 11:35:24;;;;;;;2.78;1.42;;;;;;;19.18;71.28;101297.44;5024709;28;20171;-74